createdAt,value
2023-07-30T00:02:22.989Z,6.18
2023-07-30T00:04:55.614Z,6.15
2023-07-30T00:07:27.360Z,6.45
2023-07-30T00:09:59.105Z,3.60
2023-07-30T00:12:30.957Z,6.63
2023-07-30T00:15:02.733Z,6.32
2023-07-30T00:17:34.654Z,4.72
2023-07-30T00:20:09.682Z,6.57
2023-07-30T00:22:41.721Z,4.35
2023-07-30T00:25:13.556Z,4.50
2023-07-30T00:27:45.343Z,7.38
2023-07-30T00:30:17.162Z,5.03
2023-07-30T00:32:48.942Z,6.07
2023-07-30T00:35:20.785Z,5.38
2023-07-30T00:37:52.525Z,5.05
2023-07-30T00:40:24.571Z,6.78
2023-07-30T00:42:56.406Z,7.47
2023-07-30T00:45:28.375Z,5.40
2023-07-30T00:48:00.234Z,7.35
2023-07-30T00:50:33.051Z,7.13
2023-07-30T00:53:04.872Z,5.63
2023-07-30T00:55:36.696Z,7.45
2023-07-30T00:58:09.860Z,6.63
2023-07-30T01:00:42.478Z,10.05
2023-07-30T01:03:14.657Z,7.80
2023-07-30T01:05:47.097Z,6.03
2023-07-30T01:08:18.921Z,5.90
2023-07-30T01:10:51.777Z,7.10
2023-07-30T01:13:24.038Z,5.00
2023-07-30T01:15:55.862Z,5.72
2023-07-30T01:18:27.636Z,4.82
2023-07-30T01:21:00.510Z,5.30
2023-07-30T01:23:32.265Z,8.35
2023-07-30T01:26:13.817Z,5.00
2023-07-30T01:28:50.314Z,7.50
2023-07-30T01:31:26.282Z,5.03
2023-07-30T01:33:59.434Z,6.65
2023-07-30T01:36:32.855Z,5.05
2023-07-30T01:39:04.951Z,4.70
2023-07-30T01:41:36.925Z,5.50
2023-07-30T01:44:08.998Z,6.25
2023-07-30T01:46:40.816Z,4.75
2023-07-30T01:49:12.620Z,5.20
2023-07-30T01:51:44.352Z,4.47
2023-07-30T01:54:16.207Z,6.35
2023-07-30T01:56:49.124Z,3.90
2023-07-30T01:59:20.968Z,4.90
2023-07-30T02:01:52.733Z,5.72
2023-07-30T02:04:24.545Z,4.95
2023-07-30T02:06:56.348Z,6.63
2023-07-30T02:09:28.227Z,7.28
2023-07-30T02:11:59.988Z,10.15
2023-07-30T02:14:31.785Z,6.07
2023-07-30T02:17:03.597Z,4.65
2023-07-30T02:19:35.337Z,6.65
2023-07-30T02:22:07.125Z,8.90
2023-07-30T02:24:38.909Z,6.20
2023-07-30T02:27:10.669Z,5.10
2023-07-30T02:29:42.474Z,4.97
2023-07-30T02:32:14.211Z,6.57
2023-07-30T02:34:45.993Z,6.40
2023-07-30T02:37:17.758Z,8.65
2023-07-30T02:39:49.519Z,8.98
2023-07-30T02:42:21.300Z,6.82
2023-07-30T02:44:53.116Z,8.57
2023-07-30T02:47:24.928Z,8.65
2023-07-30T02:49:56.765Z,7.35
2023-07-30T02:52:28.588Z,5.90
2023-07-30T02:55:00.415Z,5.22
2023-07-30T02:57:32.240Z,8.93
2023-07-30T03:00:05.580Z,6.20
2023-07-30T03:02:37.466Z,7.55
2023-07-30T03:05:09.438Z,7.93
2023-07-30T03:07:41.196Z,7.88
2023-07-30T03:10:13.047Z,6.85
2023-07-30T03:12:44.825Z,10.88
2023-07-30T03:15:16.634Z,11.40
2023-07-30T03:17:48.426Z,5.32
2023-07-30T03:20:20.409Z,7.18
2023-07-30T03:22:52.188Z,4.25
2023-07-30T03:25:23.992Z,7.22
2023-07-30T03:27:55.776Z,8.60
2023-07-30T03:30:27.550Z,9.65
2023-07-30T03:32:59.350Z,6.85
2023-07-30T03:35:31.105Z,6.70
2023-07-30T03:38:02.900Z,7.28
2023-07-30T03:40:34.659Z,7.25
2023-07-30T03:43:06.494Z,5.20
2023-07-30T03:45:38.374Z,5.13
2023-07-30T03:48:10.198Z,10.32
2023-07-30T03:50:42.118Z,7.20
2023-07-30T03:53:13.925Z,8.20
2023-07-30T03:55:45.703Z,5.88
2023-07-30T03:58:17.463Z,6.38
2023-07-30T04:00:49.269Z,10.65
2023-07-30T04:03:21.141Z,5.78
2023-07-30T04:05:52.953Z,6.60
2023-07-30T04:08:24.781Z,9.07
2023-07-30T04:10:56.546Z,6.43
2023-07-30T04:13:28.344Z,5.93
2023-07-30T04:16:00.125Z,8.45
2023-07-30T04:18:31.894Z,7.35
2023-07-30T04:21:03.690Z,7.70
2023-07-30T04:23:35.718Z,10.50
2023-07-30T04:26:07.538Z,9.35
2023-07-30T04:28:39.352Z,6.38
2023-07-30T04:31:11.238Z,7.82
2023-07-30T04:33:43.005Z,7.75
2023-07-30T04:36:14.949Z,8.48
2023-07-30T04:38:46.736Z,8.52
2023-07-30T04:41:20.040Z,7.22
2023-07-30T04:43:52.094Z,6.47
2023-07-30T04:46:23.969Z,6.70
2023-07-30T04:48:55.828Z,6.88
2023-07-30T04:51:27.594Z,6.22
2023-07-30T04:53:59.472Z,8.60
2023-07-30T04:56:31.516Z,10.43
2023-07-30T04:59:03.359Z,8.00
2023-07-30T05:01:35.308Z,8.52
2023-07-30T05:04:07.361Z,7.57
2023-07-30T05:06:39.127Z,8.65
2023-07-30T05:09:12.836Z,6.53
2023-07-30T05:11:44.583Z,6.70
2023-07-30T05:14:16.340Z,6.85
2023-07-30T05:16:48.378Z,7.13
2023-07-30T05:19:20.181Z,8.05
2023-07-30T05:21:51.975Z,7.85
2023-07-30T05:24:23.732Z,9.70
2023-07-30T05:26:55.509Z,8.25
2023-07-30T05:29:27.589Z,6.18
2023-07-30T05:31:59.462Z,5.70
2023-07-30T05:34:31.441Z,7.55
2023-07-30T05:37:03.293Z,6.28
2023-07-30T05:39:35.104Z,7.18
2023-07-30T05:42:07.125Z,6.75
2023-07-30T05:44:38.882Z,7.88
2023-07-30T05:47:10.685Z,5.32
2023-07-30T05:49:42.635Z,8.88
2023-07-30T05:52:14.439Z,4.38
2023-07-30T05:54:46.226Z,6.10
2023-07-30T05:57:18.036Z,4.03
2023-07-30T05:59:49.797Z,2.80
2023-07-30T06:02:21.646Z,3.22
2023-07-30T06:04:53.487Z,3.28
2023-07-30T06:07:25.644Z,3.38
2023-07-30T06:09:57.493Z,4.32
2023-07-30T06:12:29.360Z,3.42
2023-07-30T06:15:01.170Z,3.38
2023-07-30T06:17:34.365Z,3.95
2023-07-30T06:20:07.273Z,4.18
2023-07-30T06:22:39.451Z,3.20
2023-07-30T06:25:11.405Z,4.10
2023-07-30T06:27:43.417Z,4.20
2023-07-30T06:30:15.198Z,5.43
2023-07-30T06:32:47.421Z,6.47
2023-07-30T06:35:19.295Z,5.07
2023-07-30T06:37:52.143Z,4.82
2023-07-30T06:40:25.032Z,6.15
2023-07-30T06:42:56.830Z,3.17
2023-07-30T06:45:29.407Z,4.57
2023-07-30T06:48:01.334Z,3.40
2023-07-30T06:50:33.256Z,6.22
2023-07-30T06:53:05.044Z,4.18
2023-07-30T06:55:37.106Z,4.85
2023-07-30T06:58:09.007Z,5.22
2023-07-30T07:00:41.353Z,3.88
2023-07-30T07:03:13.381Z,6.05
2023-07-30T07:05:45.571Z,5.18
2023-07-30T07:08:17.392Z,3.90
2023-07-30T07:10:49.479Z,4.78
2023-07-30T07:13:21.255Z,5.22
2023-07-30T07:15:53.917Z,3.03
2023-07-30T07:18:25.950Z,4.05
2023-07-30T07:20:57.971Z,3.17
2023-07-30T07:23:30.948Z,3.92
2023-07-30T07:26:02.845Z,5.03
2023-07-30T07:28:34.749Z,4.50
2023-07-30T07:31:11.692Z,3.25
2023-07-30T07:33:46.384Z,3.92
2023-07-30T07:36:18.254Z,4.25
2023-07-30T07:38:50.118Z,3.72
2023-07-30T07:41:22.405Z,3.30
2023-07-30T07:43:55.241Z,3.95
2023-07-30T07:46:28.854Z,4.38
2023-07-30T07:49:00.861Z,5.85
2023-07-30T07:51:33.313Z,5.18
2023-07-30T07:54:05.072Z,5.40
2023-07-30T07:56:36.917Z,4.57
2023-07-30T07:59:08.691Z,5.22
2023-07-30T08:01:40.753Z,4.00
2023-07-30T08:04:12.874Z,4.72
2023-07-30T08:06:44.742Z,4.18
2023-07-30T08:09:16.585Z,6.78
2023-07-30T08:11:48.483Z,5.85
2023-07-30T08:14:22.242Z,4.43
2023-07-30T08:16:54.586Z,4.30
2023-07-30T08:19:27.634Z,3.53
2023-07-30T08:22:00.186Z,3.35
2023-07-30T08:24:32.058Z,4.57
2023-07-30T08:27:04.010Z,4.57
2023-07-30T08:29:38.198Z,5.15
2023-07-30T08:32:11.324Z,3.55
2023-07-30T08:34:43.142Z,3.63
2023-07-30T08:37:14.963Z,5.75
2023-07-30T08:39:49.848Z,3.15
2023-07-30T08:42:22.083Z,4.18
2023-07-30T08:44:53.845Z,5.15
2023-07-30T08:47:25.653Z,6.50
2023-07-30T08:49:58.236Z,3.17
2023-07-30T08:52:31.155Z,2.70
2023-07-30T08:55:04.694Z,2.90
2023-07-30T08:57:36.911Z,4.88
2023-07-30T09:00:10.612Z,4.35
2023-07-30T09:02:49.785Z,3.63
2023-07-30T09:05:22.917Z,4.43
2023-07-30T09:07:55.257Z,4.22
2023-07-30T09:10:28.043Z,5.85
2023-07-30T09:13:00.539Z,4.30
2023-07-30T09:15:40.129Z,4.65
2023-07-30T09:18:12.059Z,4.18
2023-07-30T09:20:44.262Z,3.30
2023-07-30T09:23:16.094Z,3.17
2023-07-30T09:25:49.436Z,3.40
2023-07-30T09:28:21.288Z,3.00
2023-07-30T09:31:15.377Z,2.90
2023-07-30T09:33:53.326Z,3.95
2023-07-30T09:36:25.237Z,4.00
2023-07-30T09:38:57.230Z,3.45
2023-07-30T09:41:29.097Z,3.17
2023-07-30T09:44:00.892Z,3.42
2023-07-30T09:46:32.640Z,3.22
2023-07-30T09:49:06.163Z,3.03
2023-07-30T09:51:42.152Z,3.00
2023-07-30T09:54:15.710Z,3.30
2023-07-30T09:56:47.611Z,2.92
2023-07-30T09:59:19.374Z,3.40
2023-07-30T10:01:51.856Z,3.40
2023-07-30T10:04:24.627Z,3.13
2023-07-30T10:06:59.822Z,5.30
2023-07-30T10:09:44.827Z,3.13
2023-07-30T10:12:24.515Z,2.95
2023-07-30T10:14:56.297Z,5.43
2023-07-30T10:17:30.137Z,2.97
2023-07-30T10:20:22.878Z,2.85
2023-07-30T10:22:56.291Z,3.75
2023-07-30T10:25:47.663Z,3.03
2023-07-30T10:28:31.346Z,3.50
2023-07-30T10:31:05.932Z,5.47
2023-07-30T10:33:48.096Z,3.05
2023-07-30T10:36:34.695Z,5.68
2023-07-30T10:39:18.609Z,5.75
2023-07-30T10:41:52.362Z,2.80
2023-07-30T10:44:35.578Z,3.35
2023-07-30T10:47:07.474Z,3.55
2023-07-30T10:49:41.884Z,3.28
2023-07-30T10:52:13.732Z,3.13
2023-07-30T10:54:45.529Z,2.83
2023-07-30T10:57:17.663Z,3.00
2023-07-30T10:59:49.641Z,3.63
2023-07-30T11:02:23.622Z,3.70
2023-07-30T11:04:55.511Z,3.50
2023-07-30T11:07:27.283Z,3.13
2023-07-30T11:10:03.030Z,3.55
2023-07-30T11:12:35.028Z,4.05
2023-07-30T11:15:07.377Z,3.20
2023-07-30T11:17:40.839Z,4.45
2023-07-30T11:20:31.168Z,3.22
2023-07-30T11:23:03.261Z,3.72
2023-07-30T11:25:35.308Z,3.05
2023-07-30T11:28:07.203Z,3.50
2023-07-30T11:30:39.514Z,5.15
2023-07-30T11:33:17.031Z,3.65
2023-07-30T11:35:48.816Z,4.10
2023-07-30T11:38:21.122Z,3.20
2023-07-30T11:40:55.093Z,4.72
2023-07-30T11:43:27.122Z,3.63
2023-07-30T11:46:16.513Z,3.75
2023-07-30T11:48:50.172Z,3.60
2023-07-30T11:51:30.265Z,3.25
2023-07-30T11:54:03.345Z,3.08
2023-07-30T11:56:36.063Z,2.80
2023-07-30T11:59:09.072Z,3.40
2023-07-30T12:01:44.355Z,4.22
2023-07-30T12:04:16.613Z,3.22
2023-07-30T12:06:55.793Z,3.30
2023-07-30T12:09:27.813Z,4.10
2023-07-30T12:12:01.586Z,4.18
2023-07-30T12:14:59.509Z,4.22
2023-07-30T12:17:31.301Z,2.97
2023-07-30T12:20:07.917Z,2.70
2023-07-30T12:22:39.899Z,3.10
2023-07-30T12:25:11.857Z,3.35
2023-07-30T12:27:43.639Z,17.02
2023-07-30T12:30:15.500Z,2.90
2023-07-30T12:32:47.278Z,3.42
2023-07-30T12:35:19.249Z,2.70
2023-07-30T12:37:51.244Z,2.75
2023-07-30T12:40:23.198Z,3.28
2023-07-30T12:42:55.001Z,5.25
2023-07-30T12:45:26.794Z,5.40
2023-07-30T12:47:59.106Z,5.25
2023-07-30T12:50:30.903Z,4.57
2023-07-30T12:53:02.691Z,2.90
2023-07-30T12:55:34.477Z,3.58
2023-07-30T12:58:06.534Z,5.85
2023-07-30T13:00:38.301Z,2.80
2023-07-30T13:03:10.110Z,3.70
2023-07-30T13:05:41.999Z,2.75
2023-07-30T13:08:13.768Z,2.78
2023-07-30T13:10:45.807Z,3.22
2023-07-30T13:13:17.572Z,3.47
2023-07-30T13:15:49.381Z,3.20
2023-07-30T13:18:21.273Z,2.47
2023-07-30T13:20:53.124Z,3.20
2023-07-30T13:23:27.453Z,2.88
2023-07-30T13:25:59.307Z,4.03
2023-07-30T13:28:31.224Z,3.30
2023-07-30T13:31:03.186Z,3.72
2023-07-30T13:33:35.115Z,4.97
2023-07-30T13:36:07.041Z,5.30
2023-07-30T13:38:40.051Z,2.60
2023-07-30T13:41:12.019Z,3.38
2023-07-30T13:43:43.833Z,3.20
2023-07-30T13:46:15.615Z,3.47
2023-07-30T13:48:47.439Z,3.20
2023-07-30T13:51:19.338Z,2.67
2023-07-30T13:53:51.367Z,5.40
2023-07-30T13:56:23.328Z,4.45
2023-07-30T13:58:55.486Z,2.85
2023-07-30T14:01:27.349Z,3.13
2023-07-30T14:03:59.555Z,2.95
2023-07-30T14:06:32.156Z,3.80
2023-07-30T14:09:05.353Z,2.80
2023-07-30T14:11:38.941Z,3.22
2023-07-30T14:14:11.046Z,3.20
2023-07-30T14:16:42.945Z,3.15
2023-07-30T14:19:14.781Z,2.50
2023-07-30T14:21:46.738Z,2.70
2023-07-30T14:24:18.727Z,2.55
2023-07-30T14:26:50.572Z,2.90
2023-07-30T14:29:22.536Z,3.05
2023-07-30T14:31:54.339Z,2.60
2023-07-30T14:34:26.133Z,2.72
2023-07-30T14:36:57.942Z,3.05
2023-07-30T14:39:29.724Z,2.55
2023-07-30T14:42:01.473Z,3.30
2023-07-30T14:44:33.344Z,4.80
2023-07-30T14:47:06.309Z,2.50
2023-07-30T14:49:40.075Z,2.58
2023-07-30T14:52:11.823Z,4.40
2023-07-30T14:54:45.511Z,2.67
2023-07-30T14:57:17.474Z,3.30
2023-07-30T14:59:49.243Z,2.28
2023-07-30T15:02:21.440Z,4.07
2023-07-30T15:04:53.263Z,2.40
2023-07-30T15:07:26.784Z,2.72
2023-07-30T15:09:58.601Z,2.88
2023-07-30T15:12:32.429Z,3.40
2023-07-30T15:15:07.169Z,2.45
2023-07-30T15:17:38.931Z,2.40
2023-07-30T15:20:11.505Z,2.55
2023-07-30T15:22:43.245Z,2.83
2023-07-30T15:25:15.151Z,3.63
2023-07-30T15:27:46.900Z,3.88
2023-07-30T15:30:18.742Z,3.15
2023-07-30T15:32:50.698Z,2.55
2023-07-30T15:35:22.512Z,3.47
2023-07-30T15:37:54.263Z,2.75
2023-07-30T15:40:26.054Z,2.42
2023-07-30T15:42:57.841Z,4.95
2023-07-30T15:45:30.131Z,3.63
2023-07-30T15:48:02.058Z,2.50
2023-07-30T15:50:34.547Z,3.05
2023-07-30T15:53:06.603Z,2.33
2023-07-30T15:55:38.358Z,2.85
2023-07-30T15:58:10.205Z,2.28
2023-07-30T16:00:41.970Z,2.58
2023-07-30T16:03:13.909Z,2.55
2023-07-30T16:05:49.784Z,2.33
2023-07-30T16:08:21.565Z,2.38
2023-07-30T16:11:04.814Z,2.67
2023-07-30T16:13:37.137Z,4.43
2023-07-30T16:16:18.705Z,3.53
2023-07-30T16:18:50.676Z,2.70
2023-07-30T16:21:22.420Z,3.08
2023-07-30T16:23:54.214Z,3.85
2023-07-30T16:26:26.007Z,3.22
2023-07-30T16:28:57.787Z,4.45
2023-07-30T16:31:29.620Z,3.28
2023-07-30T16:34:02.645Z,3.38
2023-07-30T16:36:34.598Z,2.88
2023-07-30T16:39:06.631Z,2.67
2023-07-30T16:41:38.524Z,3.42
2023-07-30T16:44:10.484Z,4.68
2023-07-30T16:46:42.587Z,2.40
2023-07-30T16:49:14.631Z,6.40
2023-07-30T16:51:46.388Z,2.97
2023-07-30T16:54:18.205Z,2.40
2023-07-30T16:56:50.207Z,2.60
2023-07-30T16:59:21.968Z,3.38
2023-07-30T17:01:53.780Z,2.58
2023-07-30T17:04:25.736Z,2.83
2023-07-30T17:06:57.603Z,2.88
2023-07-30T17:09:29.348Z,2.90
2023-07-30T17:12:01.261Z,3.85
2023-07-30T17:14:33.120Z,2.83
2023-07-30T17:17:05.056Z,2.38
2023-07-30T17:19:37.184Z,2.50
2023-07-30T17:22:10.569Z,2.55
2023-07-30T17:24:42.391Z,4.18
2023-07-30T17:27:16.672Z,4.63
2023-07-30T17:29:48.413Z,2.65
2023-07-30T17:32:20.240Z,3.00
2023-07-30T17:34:52.116Z,2.95
2023-07-30T17:37:23.895Z,2.70
2023-07-30T17:39:55.837Z,4.43
2023-07-30T17:42:27.594Z,3.60
2023-07-30T17:44:59.448Z,3.80
2023-07-30T17:47:31.428Z,3.35
2023-07-30T17:50:03.279Z,5.70
2023-07-30T17:52:35.029Z,3.47
2023-07-30T17:55:07.955Z,4.53
2023-07-30T17:57:40.605Z,4.00
2023-07-30T18:00:12.721Z,6.82
2023-07-30T18:02:44.587Z,5.10
2023-07-30T18:05:18.610Z,4.75
2023-07-30T18:07:53.146Z,8.48
2023-07-30T18:10:25.087Z,5.45
2023-07-30T18:12:57.111Z,8.55
2023-07-30T18:15:28.862Z,7.30
2023-07-30T18:18:05.042Z,4.40
2023-07-30T18:20:37.135Z,5.57
2023-07-30T18:23:09.020Z,5.22
2023-07-30T18:25:40.914Z,5.65
2023-07-30T18:28:12.695Z,5.22
2023-07-30T18:30:45.414Z,5.22
2023-07-30T18:33:17.218Z,4.65
2023-07-30T18:35:49.084Z,6.10
2023-07-30T18:38:20.863Z,9.43
2023-07-30T18:40:52.639Z,5.38
2023-07-30T18:43:25.024Z,7.28
2023-07-30T18:45:56.882Z,6.85
2023-07-30T18:48:30.064Z,5.72
2023-07-30T18:51:02.001Z,8.25
2023-07-30T18:53:33.950Z,6.15
2023-07-30T18:56:05.990Z,7.63
2023-07-30T18:58:37.801Z,9.27
2023-07-30T19:01:09.756Z,6.78
2023-07-30T19:03:41.530Z,6.60
2023-07-30T19:06:13.320Z,7.18
2023-07-30T19:08:45.553Z,7.20
2023-07-30T19:11:17.397Z,7.30
2023-07-30T19:13:49.336Z,5.93
2023-07-30T19:16:21.136Z,5.95
2023-07-30T19:18:53.091Z,6.03
2023-07-30T19:21:24.878Z,5.45
2023-07-30T19:23:57.231Z,8.50
2023-07-30T19:26:29.016Z,7.60
2023-07-30T19:29:01.276Z,12.63
2023-07-30T19:31:33.161Z,11.45
2023-07-30T19:34:12.803Z,14.20
2023-07-30T19:36:44.684Z,14.25
2023-07-30T19:39:16.618Z,11.93
2023-07-30T19:41:48.482Z,8.73
2023-07-30T19:44:20.506Z,9.95
2023-07-30T19:46:52.290Z,7.28
2023-07-30T19:49:24.568Z,6.72
2023-07-30T19:51:56.909Z,9.15
2023-07-30T19:54:28.931Z,6.88
2023-07-30T19:57:00.704Z,5.00
2023-07-30T19:59:32.765Z,4.72
2023-07-30T20:02:04.804Z,6.43
2023-07-30T20:04:36.601Z,7.32
2023-07-30T20:07:08.583Z,6.35
2023-07-30T20:09:40.394Z,5.55
2023-07-30T20:12:12.228Z,6.10
2023-07-30T20:14:45.243Z,4.43
2023-07-30T20:17:17.713Z,5.72
2023-07-30T20:19:49.755Z,6.68
2023-07-30T20:22:21.610Z,5.18
2023-07-30T20:24:54.382Z,4.82
2023-07-30T20:27:26.414Z,5.13
2023-07-30T20:29:58.165Z,5.45
2023-07-30T20:32:30.424Z,8.95
2023-07-30T20:35:04.464Z,4.57
2023-07-30T20:37:36.273Z,5.13
2023-07-30T20:40:09.296Z,5.00
2023-07-30T20:42:41.050Z,4.65
2023-07-30T20:45:12.798Z,5.05
2023-07-30T20:47:44.604Z,5.10
2023-07-30T20:50:17.502Z,5.75
2023-07-30T20:52:49.932Z,7.57
2023-07-30T20:55:22.615Z,4.57
2023-07-30T20:57:54.518Z,7.43
2023-07-30T21:00:26.573Z,6.97
2023-07-30T21:02:58.462Z,5.20
2023-07-30T21:05:30.336Z,7.80
2023-07-30T21:08:02.162Z,6.53
2023-07-30T21:10:33.945Z,8.27
2023-07-30T21:13:05.863Z,5.97
2023-07-30T21:15:37.667Z,5.88
2023-07-30T21:18:09.538Z,6.05
2023-07-30T21:20:41.449Z,4.65
2023-07-30T21:23:13.212Z,4.60
2023-07-30T21:25:45.411Z,4.90
2023-07-30T21:28:17.505Z,4.75
2023-07-30T21:30:49.398Z,4.32
2023-07-30T21:33:21.227Z,4.47
2023-07-30T21:35:53.435Z,5.45
2023-07-30T21:38:25.222Z,6.45
2023-07-30T21:40:57.356Z,5.43
2023-07-30T21:43:29.278Z,4.75
2023-07-30T21:46:02.386Z,5.35
2023-07-30T21:48:34.277Z,3.97
2023-07-30T21:51:06.538Z,5.53
2023-07-30T21:53:38.564Z,5.28
2023-07-30T21:56:10.351Z,3.72
2023-07-30T21:58:42.095Z,4.22
2023-07-30T22:01:14.766Z,4.28
2023-07-30T22:03:46.862Z,5.68
2023-07-30T22:06:18.735Z,4.00
2023-07-30T22:08:50.619Z,5.13
2023-07-30T22:11:22.884Z,4.60
2023-07-30T22:13:55.601Z,5.85
2023-07-30T22:16:27.501Z,5.38
2023-07-30T22:18:59.471Z,5.43
2023-07-30T22:21:31.249Z,4.20
2023-07-30T22:24:03.159Z,4.25
2023-07-30T22:26:34.987Z,8.35
2023-07-30T22:29:06.793Z,4.68
2023-07-30T22:31:39.876Z,5.45
2023-07-30T22:34:11.695Z,5.68
2023-07-30T22:36:43.746Z,5.45
2023-07-30T22:39:15.678Z,5.13
2023-07-30T22:41:47.492Z,4.25
2023-07-30T22:44:19.252Z,5.57
2023-07-30T22:46:51.062Z,4.38
2023-07-30T22:49:22.971Z,7.85
2023-07-30T22:51:54.744Z,5.13
2023-07-30T22:54:26.507Z,5.10
2023-07-30T22:56:58.585Z,6.00
2023-07-30T22:59:31.534Z,5.05
2023-07-30T23:02:03.462Z,5.38
2023-07-30T23:04:35.430Z,5.90
2023-07-30T23:07:07.655Z,7.13
2023-07-30T23:09:39.426Z,5.00
2023-07-30T23:12:11.324Z,6.43
2023-07-30T23:14:43.201Z,6.80
2023-07-30T23:17:14.979Z,6.32
2023-07-30T23:19:46.784Z,4.57
2023-07-30T23:22:18.598Z,5.93
2023-07-30T23:24:50.845Z,7.13
2023-07-30T23:27:22.695Z,6.78
2023-07-30T23:29:54.542Z,6.75
2023-07-30T23:32:26.374Z,5.25
2023-07-30T23:34:58.173Z,7.00
2023-07-30T23:37:30.078Z,4.28
2023-07-30T23:40:01.916Z,5.30
2023-07-30T23:42:33.932Z,5.22
2023-07-30T23:45:07.156Z,4.63
2023-07-30T23:47:38.982Z,6.18
2023-07-30T23:50:11.003Z,5.00
2023-07-30T23:52:42.763Z,4.80
2023-07-30T23:55:14.560Z,6.85
2023-07-30T23:57:47.207Z,6.57
